This page is updated from recent data collected by a WMR968 weather station Use the Reload or Refresh facility on your browser to retrieve the latest data.

Status report of weather station: Updated every 15 minutes



Weather report/warning/Metars

Birmingham / Airport, United Kingdom (EGBB) 52-27N 001-44W 0M
Jan 13, 2017 - 01:50 PM EST / 2017.01.13 1850 UTC
Wind: from the NW (320 degrees) at 13 MPH (11 KT):0
Visibility: greater than 7 mile(s):0
Sky conditions: mostly clear
Temperature: 37 F (3 C)
Dew Point: 32 F (0 C)
Relative Humidity: 80%
Pressure (altimeter): 29.97 in. Hg (1015 hPa)
ob: EGBB 131850Z 32011KT 9999 FEW028 03/M00 Q1015
cycle: 19
Manchester Airport, United Kingdom (EGCC) 53-21N 002-17W 0M
Jan 13, 2017 - 01:50 PM EST / 2017.01.13 1850 UTC
Wind: from the NW (320 degrees) at 13 MPH (11 KT):0
Visibility: greater than 7 mile(s):0
Temperature: 37 F (3 C)
Dew Point: 24 F (-4 C)
Relative Humidity: 59%
Pressure (altimeter): 29.97 in. Hg (1015 hPa)
ob: EGCC 131850Z AUTO 32011KT 9999 NCD 03/M04 Q1015
cycle: 19
Liverpool Airport , United Kingdom (EGGP) 53-20N 002-51W
Jan 13, 2017 - 01:50 PM EST / 2017.01.13 1850 UTC
Wind: from the NW (320 degrees) at 18 MPH (16 KT) gusting to 30 MPH (26 KT):0
Visibility: greater than 7 mile(s):0
Sky conditions: mostly clear
Temperature: 41 F (5 C)
Dew Point: 26 F (-3 C)
Relative Humidity: 56%
Pressure (altimeter): 30.00 in. Hg (1016 hPa)
ob: EGGP 131850Z 32016G26KT 9999 FEW030 05/M03 Q1016
cycle: 19
East Midlands, United Kingdom (EGNX) 52-50N 001-20W
Jan 13, 2017 - 01:50 PM EST / 2017.01.13 1850 UTC
Wind: from the NW (310 degrees) at 8 MPH (7 KT):0
Visibility: greater than 7 mile(s):0
Temperature: 33 F (1 C)
Windchill: 26 F (-3 C):1
Dew Point: 28 F (-2 C)
Relative Humidity: 80%
Pressure (altimeter): 29.94 in. Hg (1014 hPa)
ob: EGNX 131850Z 31007KT CAVOK 01/M02 Q1014
cycle: 19
Shawbury, United Kingdom (EGOS) 52-48N 002-40W 0M
Jan 13, 2017 - 12:50 PM EST / 2017.01.13 1750 UTC
Wind: from the WNW (290 degrees) at 9 MPH (8 KT):0
Visibility: greater than 7 mile(s):0
Sky conditions: mostly cloudy
Temperature: 35 F (2 C)
Windchill: 28 F (-2 C):1
Dew Point: 28 F (-2 C)
Relative Humidity: 74%
Pressure (altimeter): 29.97 in. Hg (1015 hPa)
ob: EGOS 131750Z AUTO 29008KT 9999 BKN039/// 02/M02 Q1015
cycle: 18



Use the RELOAD facility on your browser to retrieve the latest data.

Click here for a daily update of the averages/extremes to date for the month
Created by "Weather Display" software version 10.37S at this start time/date 09:07:43 02/09/2018